Juntura, OR

12:01 PM MDT on April 27, 2015 (GMT -0600)
Burns Municipal | | Change Station
CLOSE
Current Station
Airport
Location: Burns,
Elevation: 4170 ft
Nearby Weather Stations

Elev 4170 ft 43.60 °N, 118.96 °W | Updated 8 minutes ago

Clear
Clear
57 °F
Feels Like 57 °F
N
5
Wind Variable Wind from Variable

Today
High -- | Low -- °F
--% Chance of Precip.
Yesterday
High -- | Low -- °F
Precip. -- in
6:50 AM 8:50 PM
Waxing Gibbous, 66% visible
Pressure 30.33 in
Visibility 10.0 miles
Clouds Clear
Dew Point 23 °F
Humidity 27%
Rainfall 0.00 in
Snow Depth Not available.
UV 8 out of 12
Pollen 8.50 out of 12
Air Quality Not available.
Flu Activity Sporadic
METAR KBNO 271753Z AUTO VRB04KT 10SM CLR 14/M05 A3033 RMK AO2 SLP269 T01391050 10139 21044 58004

More Conditions Fewer Conditions

Pressure 30.33 in
Visibility 10.0 miles
Clouds Clear
Dew Point 23 °F
Humidity 27%
Rainfall 0.00 in
Snow Depth Not available.
UV 8 out of 12
Pollen 8.50 out of 12
Air Quality Not available.
Flu Activity Sporadic
METAR KBNO 271753Z AUTO VRB04KT 10SM CLR 14/M05 A3033 RMK AO2 SLP269 T01391050 10139 21044 58004

More Conditions Fewer Conditions

10-Day Weather Forecast

Almanac

Astronomy

Apr. 27, 2015 Rise Set
Actual Time
Civil Twilight
Nautical Twilight
Astronomical Twilight
Moon
Length of Visible Light
Length of Day
Tomorrow will be .
, % of the Moon is Illuminated

Today's Extremes

State Highs State Lows

Community

WunderPhotos

Upload Photos

1,817,386 photos uploaded!

WunderBlogs® & News

Nearby

Air Quality

  Air Quality AQ Index Pollutant
Not available.

Snow Depth

Station Depth Elevation

Earthquake Activity

City Distance Mag. Time & Date
Minimum magnitude displayed is 2.5.

Coastal Water Temperatures

Place Temperature

Stations

Nearby Weather Stations

Station Location Temp. Windchill Dew Point Humidity Wind Precip. Elev Updated Type